sensor_id;sensor_type;location;lat;lon;timestamp;pressure;altitude;pressure_sealevel;temperature;humidity
31121;BME280;17770;45.966;13.632;2022-09-13T00:00:55;100434.47;;;26.02;45.06
31121;BME280;17770;45.966;13.632;2022-09-13T00:03:22;100432.78;;;26.01;45.40
31121;BME280;17770;45.966;13.632;2022-09-13T00:05:48;100439.84;;;26.00;45.39
31121;BME280;17770;45.966;13.632;2022-09-13T00:08:14;100440.00;;;25.99;45.23
31121;BME280;17770;45.966;13.632;2022-09-13T00:10:41;100439.16;;;25.98;45.19
31121;BME280;17770;45.966;13.632;2022-09-13T00:13:07;100436.66;;;25.97;45.36
31121;BME280;17770;45.966;13.632;2022-09-13T00:15:34;100434.16;;;25.95;45.58
31121;BME280;17770;45.966;13.632;2022-09-13T00:18:00;100434.31;;;25.94;45.36
31121;BME280;17770;45.966;13.632;2022-09-13T00:20:26;100420.38;;;25.92;45.38
31121;BME280;17770;45.966;13.632;2022-09-13T00:22:52;100424.03;;;25.91;45.62
31121;BME280;17770;45.966;13.632;2022-09-13T00:25:18;100426.66;;;25.91;45.56
31121;BME280;17770;45.966;13.632;2022-09-13T00:27:44;100427.78;;;25.88;45.61
31121;BME280;17770;45.966;13.632;2022-09-13T00:30:10;100417.06;;;25.90;45.32
31121;BME280;17770;45.966;13.632;2022-09-13T00:32:37;100425.97;;;25.89;45.73
31121;BME280;17770;45.966;13.632;2022-09-13T00:35:04;100424.31;;;25.88;45.37
31121;BME280;17770;45.966;13.632;2022-09-13T00:37:30;100435.84;;;25.87;45.67
31121;BME280;17770;45.966;13.632;2022-09-13T00:39:58;100433.34;;;25.85;45.71
31121;BME280;17770;45.966;13.632;2022-09-13T00:42:27;100437.94;;;25.83;45.77
31121;BME280;17770;45.966;13.632;2022-09-13T00:44:55;100441.56;;;25.82;45.34
31121;BME280;17770;45.966;13.632;2022-09-13T00:49:55;100426.81;;;25.80;45.48
31121;BME280;17770;45.966;13.632;2022-09-13T00:52:23;100423.47;;;25.78;45.61
31121;BME280;17770;45.966;13.632;2022-09-13T00:54:54;100415.56;;;25.78;45.90
31121;BME280;17770;45.966;13.632;2022-09-13T00:57:22;100414.84;;;25.76;45.42
31121;BME280;17770;45.966;13.632;2022-09-13T00:59:51;100427.22;;;25.75;45.83
31121;BME280;17770;45.966;13.632;2022-09-13T01:02:21;100427.91;;;25.77;45.79
31121;BME280;17770;45.966;13.632;2022-09-13T01:04:47;100414.00;;;25.75;45.52
31121;BME280;17770;45.966;13.632;2022-09-13T01:07:13;100421.13;;;25.75;45.63
31121;BME280;17770;45.966;13.632;2022-09-13T01:09:43;100427.22;;;25.75;45.43
31121;BME280;17770;45.966;13.632;2022-09-13T01:14:35;100415.13;;;25.73;45.70
31121;BME280;17770;45.966;13.632;2022-09-13T01:17:02;100409.16;;;25.70;45.73
31121;BME280;17770;45.966;13.632;2022-09-13T01:19:27;100413.34;;;25.73;45.70
31121;BME280;17770;45.966;13.632;2022-09-13T01:36:58;100392.59;;;25.68;45.49
31121;BME280;17770;45.966;13.632;2022-09-13T01:49:38;100382.47;;;25.64;46.21
31121;BME280;17770;45.966;13.632;2022-09-13T01:52:07;100381.75;;;25.62;45.78
31121;BME280;17770;45.966;13.632;2022-09-13T02:02:13;100377.75;;;25.58;46.07
31121;BME280;17770;45.966;13.632;2022-09-13T02:04:46;100372.31;;;25.59;46.04
31121;BME280;17770;45.966;13.632;2022-09-13T02:07:16;100371.31;;;25.60;46.17
31121;BME280;17770;45.966;13.632;2022-09-13T02:09:44;100367.88;;;25.60;45.89
31121;BME280;17770;45.966;13.632;2022-09-13T02:12:16;100368.69;;;25.60;45.69
31121;BME280;17770;45.966;13.632;2022-09-13T02:14:45;100366.19;;;25.59;46.09
31121;BME280;17770;45.966;13.632;2022-09-13T02:17:14;100368.97;;;25.57;45.99
31121;BME280;17770;45.966;13.632;2022-09-13T02:20:04;100365.50;;;25.57;45.72
31121;BME280;17770;45.966;13.632;2022-09-13T02:22:29;100375.38;;;25.55;45.91
31121;BME280;17770;45.966;13.632;2022-09-13T02:24:58;100369.13;;;25.56;46.10
31121;BME280;17770;45.966;13.632;2022-09-13T02:27:27;100371.91;;;25.54;46.20
31121;BME280;17770;45.966;13.632;2022-09-13T02:29:55;100375.53;;;25.53;45.85
31121;BME280;17770;45.966;13.632;2022-09-13T02:32:27;100378.97;;;25.54;45.76
31121;BME280;17770;45.966;13.632;2022-09-13T02:34:57;100375.63;;;25.52;45.91
31121;BME280;17770;45.966;13.632;2022-09-13T02:37:26;100373.00;;;25.52;45.85
31121;BME280;17770;45.966;13.632;2022-09-13T02:39:54;100373.00;;;25.52;45.96
31121;BME280;17770;45.966;13.632;2022-09-13T02:42:24;100368.69;;;25.51;46.14
31121;BME280;17770;45.966;13.632;2022-09-13T02:44:52;100376.47;;;25.52;45.87
31121;BME280;17770;45.966;13.632;2022-09-13T02:52:53;100374.69;;;25.53;46.12
31121;BME280;17770;45.966;13.632;2022-09-13T02:58:08;100388.19;;;25.50;45.88
31121;BME280;17770;45.966;13.632;2022-09-13T03:00:36;100382.75;;;25.51;46.17
31121;BME280;17770;45.966;13.632;2022-09-13T03:03:03;100379.41;;;25.49;45.88
31121;BME280;17770;45.966;13.632;2022-09-13T03:05:30;100383.84;;;25.49;45.96
31121;BME280;17770;45.966;13.632;2022-09-13T03:07:56;100384.56;;;25.51;46.15
31121;BME280;17770;45.966;13.632;2022-09-13T03:10:23;100387.19;;;25.51;46.10
31121;BME280;17770;45.966;13.632;2022-09-13T03:20:38;100379.97;;;25.53;46.07
31121;BME280;17770;45.966;13.632;2022-09-13T03:23:13;100371.34;;;25.51;45.87
31121;BME280;17770;45.966;13.632;2022-09-13T03:34:02;100362.00;;;25.47;46.12
31121;BME280;17770;45.966;13.632;2022-09-13T03:39:02;100368.44;;;25.44;46.03
31121;BME280;17770;45.966;13.632;2022-09-13T03:41:33;100360.38;;;25.46;45.99
31121;BME280;17770;45.966;13.632;2022-09-13T03:44:02;100364.66;;;25.47;46.23
31121;BME280;17770;45.966;13.632;2022-09-13T03:46:31;100358.56;;;25.46;45.97
31121;BME280;17770;45.966;13.632;2022-09-13T03:49:02;100348.13;;;25.45;46.54
31121;BME280;17770;45.966;13.632;2022-09-13T03:51:29;100350.63;;;25.46;46.08
31121;BME280;17770;45.966;13.632;2022-09-13T03:53:57;100341.88;;;25.46;46.29
31121;BME280;17770;45.966;13.632;2022-09-13T03:56:24;100341.72;;;25.47;46.11
31121;BME280;17770;45.966;13.632;2022-09-13T03:58:50;100340.22;;;25.45;46.22
31121;BME280;17770;45.966;13.632;2022-09-13T04:01:17;100336.44;;;25.47;45.90
31121;BME280;17770;45.966;13.632;2022-09-13T04:03:44;100334.66;;;25.48;46.17
31121;BME280;17770;45.966;13.632;2022-09-13T04:06:10;100337.28;;;25.48;46.04
31121;BME280;17770;45.966;13.632;2022-09-13T04:08:35;100345.34;;;25.46;45.94
31121;BME280;17770;45.966;13.632;2022-09-13T04:11:01;100351.59;;;25.45;46.24
31121;BME280;17770;45.966;13.632;2022-09-13T04:13:27;100351.72;;;25.44;45.93
31121;BME280;17770;45.966;13.632;2022-09-13T04:15:53;100352.16;;;25.39;46.11
31121;BME280;17770;45.966;13.632;2022-09-13T04:18:19;100353.28;;;25.37;46.36
31121;BME280;17770;45.966;13.632;2022-09-13T04:20:52;100346.31;;;25.36;46.30
31121;BME280;17770;45.966;13.632;2022-09-13T04:23:18;100353.41;;;25.35;46.41
31121;BME280;17770;45.966;13.632;2022-09-13T04:25:44;100346.72;;;25.31;46.60
31121;BME280;17770;45.966;13.632;2022-09-13T04:28:10;100347.66;;;25.30;46.36
31121;BME280;17770;45.966;13.632;2022-09-13T04:30:36;100345.03;;;25.30;46.77
31121;BME280;17770;45.966;13.632;2022-09-13T04:33:02;100339.75;;;25.30;46.54
31121;BME280;17770;45.966;13.632;2022-09-13T04:35:28;100349.34;;;25.31;46.79
31121;BME280;17770;45.966;13.632;2022-09-13T04:37:54;100339.63;;;25.32;46.82
31121;BME280;17770;45.966;13.632;2022-09-13T04:40:20;100344.78;;;25.33;47.31
31121;BME280;17770;45.966;13.632;2022-09-13T04:42:47;100341.28;;;25.33;46.42
31121;BME280;17770;45.966;13.632;2022-09-13T04:45:13;100340.44;;;25.32;46.41
31121;BME280;17770;45.966;13.632;2022-09-13T04:47:39;100350.88;;;25.34;46.32
31121;BME280;17770;45.966;13.632;2022-09-13T04:50:04;100355.47;;;25.32;46.68
31121;BME280;17770;45.966;13.632;2022-09-13T04:52:31;100350.19;;;25.32;46.48
31121;BME280;17770;45.966;13.632;2022-09-13T04:54:58;100357.28;;;25.31;46.23
31121;BME280;17770;45.966;13.632;2022-09-13T04:57:26;100362.84;;;25.28;46.63
31121;BME280;17770;45.966;13.632;2022-09-13T04:59:52;100360.19;;;25.28;46.58
31121;BME280;17770;45.966;13.632;2022-09-13T05:02:18;100364.09;;;25.24;46.91
31121;BME280;17770;45.966;13.632;2022-09-13T05:04:44;100366.56;;;25.26;46.56
31121;BME280;17770;45.966;13.632;2022-09-13T05:07:09;100362.28;;;25.25;46.88
31121;BME280;17770;45.966;13.632;2022-09-13T05:09:35;100365.06;;;25.23;46.65
31121;BME280;17770;45.966;13.632;2022-09-13T05:12:01;100362.56;;;25.22;46.75
31121;BME280;17770;45.966;13.632;2022-09-13T05:14:27;100365.22;;;25.22;46.93
31121;BME280;17770;45.966;13.632;2022-09-13T05:16:53;100375.63;;;25.23;46.54
31121;BME280;17770;45.966;13.632;2022-09-13T05:19:19;100368.78;;;25.21;46.95
31121;BME280;17770;45.966;13.632;2022-09-13T05:21:45;100358.38;;;25.19;46.89
31121;BME280;17770;45.966;13.632;2022-09-13T05:24:10;100359.38;;;25.18;47.02
31121;BME280;17770;45.966;13.632;2022-09-13T05:26:36;100358.50;;;25.18;47.26
31121;BME280;17770;45.966;13.632;2022-09-13T05:29:02;100362.97;;;25.17;46.82
31121;BME280;17770;45.966;13.632;2022-09-13T05:31:30;100361.16;;;25.18;47.03
31121;BME280;17770;45.966;13.632;2022-09-13T05:33:57;100360.47;;;25.16;47.11
31121;BME280;17770;45.966;13.632;2022-09-13T05:36:23;100354.38;;;25.15;46.87
31121;BME280;17770;45.966;13.632;2022-09-13T05:38:50;100364.78;;;25.17;46.73
31121;BME280;17770;45.966;13.632;2022-09-13T05:41:16;100360.47;;;25.16;47.12
31121;BME280;17770;45.966;13.632;2022-09-13T05:43:42;100363.09;;;25.16;47.13
31121;BME280;17770;45.966;13.632;2022-09-13T05:46:18;100364.78;;;25.17;47.17
31121;BME280;17770;45.966;13.632;2022-09-13T05:48:44;100363.22;;;25.14;47.12
31121;BME280;17770;45.966;13.632;2022-09-13T05:51:11;100371.00;;;25.16;46.76
31121;BME280;17770;45.966;13.632;2022-09-13T05:53:37;100369.34;;;25.15;47.11
31121;BME280;17770;45.966;13.632;2022-09-13T05:56:07;100372.13;;;25.13;47.30
31121;BME280;17770;45.966;13.632;2022-09-13T05:58:33;100379.06;;;25.14;47.02
31121;BME280;17770;45.966;13.632;2022-09-13T06:01:02;100372.00;;;25.15;47.13
31121;BME280;17770;45.966;13.632;2022-09-13T06:03:28;100372.00;;;25.15;47.10
31121;BME280;17770;45.966;13.632;2022-09-13T06:05:55;100367.69;;;25.14;46.94
31121;BME280;17770;45.966;13.632;2022-09-13T06:08:22;100366.00;;;25.13;47.26
31121;BME280;17770;45.966;13.632;2022-09-13T06:10:57;100360.72;;;25.13;47.28
31121;BME280;17770;45.966;13.632;2022-09-13T06:13:24;100362.66;;;25.11;47.06
31121;BME280;17770;45.966;13.632;2022-09-13T06:15:50;100354.09;;;25.09;47.42
31121;BME280;17770;45.966;13.632;2022-09-13T06:18:16;100364.34;;;25.12;47.32
31121;BME280;17770;45.966;13.632;2022-09-13T06:20:42;100358.50;;;25.08;47.39
31121;BME280;17770;45.966;13.632;2022-09-13T06:23:08;100351.44;;;25.09;47.18
31121;BME280;17770;45.966;13.632;2022-09-13T06:25:34;100358.38;;;25.10;47.16
31121;BME280;17770;45.966;13.632;2022-09-13T06:28:00;100364.50;;;25.10;47.47
31121;BME280;17770;45.966;13.632;2022-09-13T06:30:25;100363.38;;;25.13;47.04
31121;BME280;17770;45.966;13.632;2022-09-13T06:32:51;100362.00;;;25.09;47.24
31121;BME280;17770;45.966;13.632;2022-09-13T06:35:17;100368.66;;;25.13;47.30
31121;BME280;17770;45.966;13.632;2022-09-13T06:37:43;100377.28;;;25.15;47.20
31121;BME280;17770;45.966;13.632;2022-09-13T06:40:09;100372.13;;;25.13;47.30
31121;BME280;17770;45.966;13.632;2022-09-13T06:42:35;100373.78;;;25.14;47.41
31121;BME280;17770;45.966;13.632;2022-09-13T06:45:01;100371.16;;;25.14;47.23
31121;BME280;17770;45.966;13.632;2022-09-13T06:47:27;100380.91;;;25.14;47.36
31121;BME280;17770;45.966;13.632;2022-09-13T06:49:53;100376.28;;;25.16;47.32
31121;BME280;17770;45.966;13.632;2022-09-13T06:52:19;100375.63;;;25.14;47.05
31121;BME280;17770;45.966;13.632;2022-09-13T06:54:44;100376.28;;;25.16;47.09
31121;BME280;17770;45.966;13.632;2022-09-13T06:57:10;100369.34;;;25.15;47.00
31121;BME280;17770;45.966;13.632;2022-09-13T06:59:36;100363.94;;;25.16;47.07
31121;BME280;17770;45.966;13.632;2022-09-13T07:02:02;100371.56;;;25.19;47.09
31121;BME280;17770;45.966;13.632;2022-09-13T07:04:28;100376.00;;;25.19;47.34
31121;BME280;17770;45.966;13.632;2022-09-13T07:06:57;100371.72;;;25.18;47.35
31121;BME280;17770;45.966;13.632;2022-09-13T07:09:24;100372.97;;;25.14;47.46
31121;BME280;17770;45.966;13.632;2022-09-13T07:11:51;100376.44;;;25.14;47.32
31121;BME280;17770;45.966;13.632;2022-09-13T07:14:19;100372.97;;;25.14;47.60
31121;BME280;17770;45.966;13.632;2022-09-13T07:16:45;100379.06;;;25.14;47.55
31121;BME280;17770;45.966;13.632;2022-09-13T07:19:13;100370.34;;;25.14;47.64
31121;BME280;17770;45.966;13.632;2022-09-13T07:21:39;100374.78;;;25.13;47.70
31121;BME280;17770;45.966;13.632;2022-09-13T07:24:05;100372.13;;;25.13;47.61
31121;BME280;17770;45.966;13.632;2022-09-13T07:26:31;100375.63;;;25.14;47.56
31121;BME280;17770;45.966;13.632;2022-09-13T07:28:58;100379.06;;;25.14;47.93
31121;BME280;17770;45.966;13.632;2022-09-13T07:31:25;100367.81;;;25.12;47.81
31121;BME280;17770;45.966;13.632;2022-09-13T07:33:52;100373.66;;;25.16;47.38
31121;BME280;17770;45.966;13.632;2022-09-13T07:36:19;100377.13;;;25.16;47.63
31121;BME280;17770;45.966;13.632;2022-09-13T07:38:44;100376.44;;;25.14;47.70
31121;BME280;17770;45.966;13.632;2022-09-13T07:41:12;100374.50;;;25.16;47.55
31121;BME280;17770;45.966;13.632;2022-09-13T07:43:38;100371.84;;;25.16;47.85
31121;BME280;17770;45.966;13.632;2022-09-13T07:48:31;100362.00;;;25.18;47.92
31121;BME280;17770;45.966;13.632;2022-09-13T07:53:30;100360.19;;;25.19;47.98
31121;BME280;17770;45.966;13.632;2022-09-13T07:56:03;100366.84;;;25.23;47.89
31121;BME280;17770;45.966;13.632;2022-09-13T07:58:29;100365.88;;;25.24;47.59
31121;BME280;17770;45.966;13.632;2022-09-13T08:00:57;100377.13;;;25.26;47.76
31121;BME280;17770;45.966;13.632;2022-09-13T08:03:25;100381.59;;;25.25;47.74
31121;BME280;17770;45.966;13.632;2022-09-13T08:05:51;100374.34;;;25.27;48.08
31121;BME280;17770;45.966;13.632;2022-09-13T08:08:17;100372.69;;;25.26;47.74
31121;BME280;17770;45.966;13.632;2022-09-13T08:10:44;100374.50;;;25.26;47.69
31121;BME280;17770;45.966;13.632;2022-09-13T08:13:10;100373.53;;;25.27;47.83
31121;BME280;17770;45.966;13.632;2022-09-13T08:15:36;100387.41;;;25.29;47.57
31121;BME280;17770;45.966;13.632;2022-09-13T08:18:02;100385.63;;;25.29;47.67
31121;BME280;17770;45.966;13.632;2022-09-13T08:20:27;100388.13;;;25.31;47.74
31121;BME280;17770;45.966;13.632;2022-09-13T08:22:53;100374.78;;;25.32;47.66
31121;BME280;17770;45.966;13.632;2022-09-13T08:25:19;100377.41;;;25.32;47.92
31121;BME280;17770;45.966;13.632;2022-09-13T08:27:45;100373.81;;;25.33;48.04
31121;BME280;17770;45.966;13.632;2022-09-13T08:30:11;100367.56;;;25.34;47.83
31121;BME280;17770;45.966;13.632;2022-09-13T08:32:37;100363.00;;;25.36;47.65
31121;BME280;17770;45.966;13.632;2022-09-13T08:35:03;100363.16;;;25.35;48.00
31121;BME280;17770;45.966;13.632;2022-09-13T08:37:30;100365.66;;;25.36;47.54
31121;BME280;17770;45.966;13.632;2022-09-13T08:39:56;100369.00;;;25.38;47.65
31121;BME280;17770;45.966;13.632;2022-09-13T08:43:05;100360.94;;;25.40;47.39
31121;BME280;17770;45.966;13.632;2022-09-13T08:45:11;100356.34;;;25.42;47.73
31121;BME280;17770;45.966;13.632;2022-09-13T08:47:39;100371.34;;;25.41;47.82
31121;BME280;17770;45.966;13.632;2022-09-13T08:50:20;100354.38;;;25.44;47.58
31121;BME280;17770;45.966;13.632;2022-09-13T08:55:23;100362.16;;;25.45;47.93
31121;BME280;17770;45.966;13.632;2022-09-13T08:58:14;100366.34;;;25.48;47.55
31121;BME280;17770;45.966;13.632;2022-09-13T09:00:39;100366.34;;;25.48;47.51
31121;BME280;17770;45.966;13.632;2022-09-13T09:03:15;100369.69;;;25.50;47.68
31121;BME280;17770;45.966;13.632;2022-09-13T09:05:47;100364.25;;;25.51;47.61
31121;BME280;17770;45.966;13.632;2022-09-13T09:08:17;100364.13;;;25.53;47.44
31121;BME280;17770;45.966;13.632;2022-09-13T09:10:47;100359.53;;;25.55;47.60
31121;BME280;17770;45.966;13.632;2022-09-13T09:15:45;100359.41;;;25.56;47.89
31121;BME280;17770;45.966;13.632;2022-09-13T09:18:23;100353.69;;;25.61;47.67
31121;BME280;17770;45.966;13.632;2022-09-13T09:20:53;100357.16;;;25.61;47.63
31121;BME280;17770;45.966;13.632;2022-09-13T09:23:22;100361.59;;;25.61;47.36
31121;BME280;17770;45.966;13.632;2022-09-13T09:25:50;100355.06;;;25.65;47.49
31121;BME280;17770;45.966;13.632;2022-09-13T09:28:17;100355.06;;;25.65;47.67
31121;BME280;17770;45.966;13.632;2022-09-13T09:33:30;100349.50;;;25.68;47.84
31121;BME280;17770;45.966;13.632;2022-09-13T09:36:05;100344.78;;;25.72;47.27
31121;BME280;17770;45.966;13.632;2022-09-13T09:38:39;100351.72;;;25.73;47.46
31121;BME280;17770;45.966;13.632;2022-09-13T09:41:14;100350.72;;;25.73;48.05
31121;BME280;17770;45.966;13.632;2022-09-13T09:44:26;100354.91;;;25.76;47.88
31121;BME280;17770;45.966;13.632;2022-09-13T09:46:32;100356.56;;;25.77;47.43
31121;BME280;17770;45.966;13.632;2022-09-13T09:49:01;100358.91;;;25.80;47.69
31121;BME280;17770;45.966;13.632;2022-09-13T09:51:50;100352.69;;;25.81;47.67
31121;BME280;17770;45.966;13.632;2022-09-13T09:54:16;100356.03;;;25.83;47.85
31121;BME280;17770;45.966;13.632;2022-09-13T09:56:50;100351.41;;;25.85;47.78
31121;BME280;17770;45.966;13.632;2022-09-13T09:59:24;100355.72;;;25.86;47.91
31121;BME280;17770;45.966;13.632;2022-09-13T10:01:50;100341.53;;;25.87;47.49
31121;BME280;17770;45.966;13.632;2022-09-13T10:04:20;100339.59;;;25.89;47.30
31121;BME280;17770;45.966;13.632;2022-09-13T10:06:46;100336.78;;;25.91;47.81
31121;BME280;17770;45.966;13.632;2022-09-13T10:09:17;100329.56;;;25.93;47.70
31121;BME280;17770;45.966;13.632;2022-09-13T10:17:01;100330.78;;;25.98;47.81
31121;BME280;17770;45.966;13.632;2022-09-13T10:19:28;100325.38;;;26.00;47.37
31121;BME280;17770;45.966;13.632;2022-09-13T10:21:58;100316.19;;;26.04;47.35
31121;BME280;17770;45.966;13.632;2022-09-13T10:24:24;100321.31;;;26.05;47.81
31121;BME280;17770;45.966;13.632;2022-09-13T10:26:50;100317.44;;;26.09;47.61
31121;BME280;17770;45.966;13.632;2022-09-13T10:29:15;100324.38;;;26.10;47.80
31121;BME280;17770;45.966;13.632;2022-09-13T10:31:43;100320.63;;;26.13;47.95
31121;BME280;17770;45.966;13.632;2022-09-13T10:34:16;100325.47;;;26.17;47.64
31121;BME280;17770;45.966;13.632;2022-09-13T10:37:02;100319.88;;;26.20;47.66
31121;BME280;17770;45.966;13.632;2022-09-13T10:39:29;100313.34;;;26.24;47.26
31121;BME280;17770;45.966;13.632;2022-09-13T10:46:51;100308.84;;;26.34;47.00
31121;BME280;17770;45.966;13.632;2022-09-13T10:52:26;100306.59;;;26.39;47.32
31121;BME280;17770;45.966;13.632;2022-09-13T10:54:53;100308.09;;;26.42;47.15
31121;BME280;17770;45.966;13.632;2022-09-13T10:57:30;100317.56;;;26.44;47.37
31121;BME280;17770;45.966;13.632;2022-09-13T10:59:57;100304.19;;;26.46;47.54
31121;BME280;17770;45.966;13.632;2022-09-13T11:12:44;100309.25;;;26.57;47.09
31121;BME280;17770;45.966;13.632;2022-09-13T11:46:55;100316.84;;;26.79;48.65
31121;BME280;17770;45.966;13.632;2022-09-13T11:55:13;100331.09;;;26.86;49.46
31121;BME280;17770;45.966;13.632;2022-09-13T11:57:42;100330.84;;;26.89;49.07
31121;BME280;17770;45.966;13.632;2022-09-13T12:02:58;100322.91;;;26.89;49.24
31121;BME280;17770;45.966;13.632;2022-09-13T12:05:29;100328.19;;;26.89;49.06
31121;BME280;17770;45.966;13.632;2022-09-13T12:08:02;100318.41;;;26.89;49.32
31121;BME280;17770;45.966;13.632;2022-09-13T12:12:58;100313.81;;;26.91;48.89
31121;BME280;17770;45.966;13.632;2022-09-13T12:15:37;100314.50;;;26.93;49.04
31121;BME280;17770;45.966;13.632;2022-09-13T12:21:07;100312.38;;;26.97;48.44
31121;BME280;17770;45.966;13.632;2022-09-13T12:23:40;100313.88;;;27.00;48.65
31121;BME280;17770;45.966;13.632;2022-09-13T12:26:29;100321.50;;;27.03;49.21
31121;BME280;17770;45.966;13.632;2022-09-13T12:29:00;100316.91;;;27.05;48.80
31121;BME280;17770;45.966;13.632;2022-09-13T12:31:28;100324.84;;;27.05;49.32
31121;BME280;17770;45.966;13.632;2022-09-13T12:33:54;100311.47;;;27.06;49.35
31121;BME280;17770;45.966;13.632;2022-09-13T12:36:39;100313.94;;;27.08;49.24
31121;BME280;17770;45.966;13.632;2022-09-13T12:47:07;100313.53;;;27.12;49.56
31121;BME280;17770;45.966;13.632;2022-09-13T12:57:33;100302.16;;;27.20;50.76
31121;BME280;17770;45.966;13.632;2022-09-13T13:07:59;100303.09;;;27.28;50.46
31121;BME280;17770;45.966;13.632;2022-09-13T13:10:33;100303.94;;;27.29;51.03
31121;BME280;17770;45.966;13.632;2022-09-13T13:13:10;100304.75;;;27.29;51.06
31121;BME280;17770;45.966;13.632;2022-09-13T13:19:03;100308.22;;;27.30;50.67
31121;BME280;17770;45.966;13.632;2022-09-13T13:33:45;100304.44;;;27.32;49.05
31121;BME280;17770;45.966;13.632;2022-09-13T13:36:25;100294.84;;;27.31;49.45
31121;BME280;17770;45.966;13.632;2022-09-13T13:38:56;100298.31;;;27.32;49.54
31121;BME280;17770;45.966;13.632;2022-09-13T13:44:53;100305.97;;;27.35;49.92
31121;BME280;17770;45.966;13.632;2022-09-13T13:52:42;100301.19;;;27.38;50.50
31121;BME280;17770;45.966;13.632;2022-09-13T13:57:35;100301.72;;;27.42;50.28
31121;BME280;17770;45.966;13.632;2022-09-13T14:00:19;100303.38;;;27.43;50.77
31121;BME280;17770;45.966;13.632;2022-09-13T14:10:29;100285.03;;;27.49;49.99
31121;BME280;17770;45.966;13.632;2022-09-13T14:15:33;100283.75;;;27.53;51.19
31121;BME280;17770;45.966;13.632;2022-09-13T14:20:29;100279.25;;;27.54;50.62
31121;BME280;17770;45.966;13.632;2022-09-13T14:23:10;100278.28;;;27.55;50.85
31121;BME280;17770;45.966;13.632;2022-09-13T14:25:36;100278.13;;;27.56;49.96
31121;BME280;17770;45.966;13.632;2022-09-13T14:28:02;100278.81;;;27.58;50.67
31121;BME280;17770;45.966;13.632;2022-09-13T14:30:32;100275.16;;;27.59;50.91
31121;BME280;17770;45.966;13.632;2022-09-13T14:32:59;100273.34;;;27.60;50.98
31121;BME280;17770;45.966;13.632;2022-09-13T14:35:27;100275.00;;;27.61;50.43
31121;BME280;17770;45.966;13.632;2022-09-13T14:37:53;100267.75;;;27.63;50.33
31121;BME280;17770;45.966;13.632;2022-09-13T14:40:24;100262.44;;;27.63;50.39
31121;BME280;17770;45.966;13.632;2022-09-13T14:42:54;100264.94;;;27.64;50.33
31121;BME280;17770;45.966;13.632;2022-09-13T14:45:28;100260.31;;;27.66;50.10
31121;BME280;17770;45.966;13.632;2022-09-13T14:50:32;100263.47;;;27.70;50.16
31121;BME280;17770;45.966;13.632;2022-09-13T14:53:03;100264.13;;;27.72;49.78
31121;BME280;17770;45.966;13.632;2022-09-13T14:55:34;100263.97;;;27.73;50.58
31121;BME280;17770;45.966;13.632;2022-09-13T14:58:03;100266.78;;;27.72;49.58
31121;BME280;17770;45.966;13.632;2022-09-13T15:00:31;100263.84;;;27.75;50.01
31121;BME280;17770;45.966;13.632;2022-09-13T15:02:58;100266.34;;;27.76;50.42
31121;BME280;17770;45.966;13.632;2022-09-13T15:05:27;100264.50;;;27.77;50.19
31121;BME280;17770;45.966;13.632;2022-09-13T15:07:55;100267.81;;;27.79;50.36
31121;BME280;17770;45.966;13.632;2022-09-13T15:10:25;100264.34;;;27.78;49.90
31121;BME280;17770;45.966;13.632;2022-09-13T15:20:49;100270.84;;;27.84;50.27
31121;BME280;17770;45.966;13.632;2022-09-13T15:25:52;100260.22;;;27.84;49.54
31121;BME280;17770;45.966;13.632;2022-09-13T15:28:23;100257.59;;;27.84;49.27
31121;BME280;17770;45.966;13.632;2022-09-13T15:30:49;100252.28;;;27.84;49.49
31121;BME280;17770;45.966;13.632;2022-09-13T15:33:18;100252.44;;;27.82;49.38
31121;BME280;17770;45.966;13.632;2022-09-13T15:35:46;100255.78;;;27.84;49.75
31121;BME280;17770;45.966;13.632;2022-09-13T15:38:17;100252.44;;;27.82;50.02
31121;BME280;17770;45.966;13.632;2022-09-13T15:40:45;100247.13;;;27.82;49.98
31121;BME280;17770;45.966;13.632;2022-09-13T15:43:11;100247.97;;;27.83;50.16
31121;BME280;17770;45.966;13.632;2022-09-13T15:45:37;100245.31;;;27.83;49.55
31121;BME280;17770;45.966;13.632;2022-09-13T15:48:03;100243.66;;;27.82;49.89
31121;BME280;17770;45.966;13.632;2022-09-13T15:50:29;100243.66;;;27.82;49.76
31121;BME280;17770;45.966;13.632;2022-09-13T15:52:56;100247.97;;;27.83;49.69
31121;BME280;17770;45.966;13.632;2022-09-13T15:55:23;100241.00;;;27.82;49.92
31121;BME280;17770;45.966;13.632;2022-09-13T15:57:49;100233.03;;;27.82;49.96
31121;BME280;17770;45.966;13.632;2022-09-13T16:00:19;100237.53;;;27.81;49.69
31121;BME280;17770;45.966;13.632;2022-09-13T16:02:46;100243.81;;;27.80;49.23
31121;BME280;17770;45.966;13.632;2022-09-13T16:05:12;100236.00;;;27.79;49.24
31121;BME280;17770;45.966;13.632;2022-09-13T16:07:38;100234.03;;;27.81;49.49
31121;BME280;17770;45.966;13.632;2022-09-13T16:10:12;100233.19;;;27.80;49.89
31121;BME280;17770;45.966;13.632;2022-09-13T16:12:38;100235.03;;;27.80;49.21
31121;BME280;17770;45.966;13.632;2022-09-13T16:15:04;100236.84;;;27.79;48.92
31121;BME280;17770;45.966;13.632;2022-09-13T16:17:30;100237.69;;;27.80;49.48
31121;BME280;17770;45.966;13.632;2022-09-13T16:19:56;100243.81;;;27.80;49.04
31121;BME280;17770;45.966;13.632;2022-09-13T16:22:22;100237.69;;;27.80;48.74
31121;BME280;17770;45.966;13.632;2022-09-13T16:24:48;100237.69;;;27.80;48.89
31121;BME280;17770;45.966;13.632;2022-09-13T16:27:14;100234.03;;;27.81;49.08
31121;BME280;17770;45.966;13.632;2022-09-13T16:29:40;100234.03;;;27.81;48.85